Elba, Minnesota
Current Conditions -  °F | °C
As of 10:33 AM on Friday 24 Oct 2014 (Local Time) from KONA Reporting Station
Broken Clouds Broken Clouds  
Wind Chill: 13°   Ceiling: 4800
Heat Index: 13°   Visibility: 10mi
Dew Point: 11°   Wind: 9mph
Humidity: 88%   Direction: 130°SE
Pressure: 29.96"   Gusts: NA
Location:  44.1503°N, 91.9879°W
Report Text: KONA 241533Z AUTO 13008KT 10SM SCT009 BKN048 13/11 A2996 RMK AO2
Loading
Personal Weather Stations






























Interactive Weather Map
Tropical Storm Tracking
New forecast layout! Learn more

10-Day Weather Forecast

Advertisements
Track Severe Weather on mobile